Аэропорт: Аулие-Ата. Тараз

ICAO: UADD

METAR:
2020-06-02 06:30:00
UADD 020630Z 30004MPS 260V360 9999 SCT046 33/07 Q1010 R13/0///65 NOSIG RMK QFE701/0934
METAR:
2020-06-02 05:00:00
TAF UADD 020500Z 0206/0215 32005G10MPS 9999 SCT050 BKN100 TEMPO 0206/0212 -TSRA BKN050CB